KARR

Aurora Municipal Airport

Chicago/Aurora, Illinois, USA
METAR KARR 260252Z AUTO 24004KT 10SM CLR 02/M02 A3008 RMK AO2 SLP193 T00171022 51015
Observed Flight Rules
Feb-26 @ 02:52 UTC (34 minutes ago) Visual Flight Rules
Wind Visibility Clouds
240° at 4 knots 10 miles
  • Clear skies
Temperatures Readings
Current 2°C / 36°F
Dewpoint -2°C / 28°F
Humidity 75%
Altimeter 30.08" Hg
Pressure 1019.3 hPa
Elevation 215
METAR KARR 260252Z AUTO 24004KT 10SM CLR 02/M02 A3008 RMK AO2 SLP193 T00171022 51015
Observed Flight Rules
Feb-26 @ 02:52 UTC
(34 minutes ago)
VFR
Wind Visibility
240° at 4 knots 10 miles
Clouds
  • Clear skies
Temperature Dewpoint
2°C / 36°F -2°C / 28°F
Humidity Altimeter Pressure
75% 30.08" Hg 1019.3 hPa